sensor_id;sensor_type;location;lat;lon;timestamp;P1;durP1;ratioP1;P2;durP2;ratioP2
72524;SDS011;60547;48.502;8.996;2023-03-12T00:01:30;7.07;;;3.08;;
72524;SDS011;60547;48.502;8.996;2023-03-12T00:03:57;8.25;;;3.97;;
72524;SDS011;60547;48.502;8.996;2023-03-12T00:06:25;6.60;;;3.78;;
72524;SDS011;60547;48.502;8.996;2023-03-12T00:08:51;8.70;;;3.50;;
72524;SDS011;60547;48.502;8.996;2023-03-12T00:11:17;9.27;;;3.45;;
72524;SDS011;60547;48.502;8.996;2023-03-12T00:13:44;10.10;;;3.40;;
72524;SDS011;60547;48.502;8.996;2023-03-12T00:16:14;6.60;;;3.35;;
72524;SDS011;60547;48.502;8.996;2023-03-12T00:18:40;5.55;;;3.20;;
72524;SDS011;60547;48.502;8.996;2023-03-12T00:21:06;5.93;;;3.47;;
72524;SDS011;60547;48.502;8.996;2023-03-12T00:23:32;6.35;;;3.65;;
72524;SDS011;60547;48.502;8.996;2023-03-12T00:26:05;7.72;;;4.03;;
72524;SDS011;60547;48.502;8.996;2023-03-12T00:28:33;9.10;;;4.25;;
72524;SDS011;60547;48.502;8.996;2023-03-12T00:31:02;6.85;;;3.53;;
72524;SDS011;60547;48.502;8.996;2023-03-12T00:33:36;10.30;;;3.67;;
72524;SDS011;60547;48.502;8.996;2023-03-12T00:36:02;9.10;;;3.75;;
72524;SDS011;60547;48.502;8.996;2023-03-12T00:38:27;7.75;;;3.03;;
72524;SDS011;60547;48.502;8.996;2023-03-12T00:40:53;11.00;;;3.80;;
72524;SDS011;60547;48.502;8.996;2023-03-12T00:43:18;8.15;;;3.53;;
72524;SDS011;60547;48.502;8.996;2023-03-12T00:45:44;6.05;;;3.13;;
72524;SDS011;60547;48.502;8.996;2023-03-12T00:48:09;6.88;;;3.80;;
72524;SDS011;60547;48.502;8.996;2023-03-12T00:50:35;6.88;;;3.28;;
72524;SDS011;60547;48.502;8.996;2023-03-12T00:53:01;6.32;;;3.38;;
72524;SDS011;60547;48.502;8.996;2023-03-12T00:55:26;8.35;;;3.20;;
72524;SDS011;60547;48.502;8.996;2023-03-12T00:57:51;7.82;;;3.25;;
72524;SDS011;60547;48.502;8.996;2023-03-12T01:00:17;7.07;;;3.45;;
72524;SDS011;60547;48.502;8.996;2023-03-12T01:02:42;5.68;;;2.92;;
72524;SDS011;60547;48.502;8.996;2023-03-12T01:05:09;5.97;;;3.28;;
72524;SDS011;60547;48.502;8.996;2023-03-12T01:07:36;5.75;;;3.03;;
72524;SDS011;60547;48.502;8.996;2023-03-12T01:10:02;6.65;;;3.50;;
72524;SDS011;60547;48.502;8.996;2023-03-12T01:12:28;5.18;;;3.38;;
72524;SDS011;60547;48.502;8.996;2023-03-12T01:14:54;5.63;;;3.42;;
72524;SDS011;60547;48.502;8.996;2023-03-12T01:17:19;6.30;;;2.80;;
72524;SDS011;60547;48.502;8.996;2023-03-12T01:19:45;6.53;;;3.47;;
72524;SDS011;60547;48.502;8.996;2023-03-12T01:22:10;7.28;;;3.50;;
72524;SDS011;60547;48.502;8.996;2023-03-12T01:24:36;7.03;;;3.15;;
72524;SDS011;60547;48.502;8.996;2023-03-12T01:27:01;6.78;;;3.30;;
72524;SDS011;60547;48.502;8.996;2023-03-12T01:29:27;6.95;;;3.15;;
72524;SDS011;60547;48.502;8.996;2023-03-12T01:31:52;7.43;;;2.78;;
72524;SDS011;60547;48.502;8.996;2023-03-12T01:34:18;6.45;;;3.50;;
72524;SDS011;60547;48.502;8.996;2023-03-12T01:36:43;6.35;;;3.20;;
72524;SDS011;60547;48.502;8.996;2023-03-12T01:39:10;5.38;;;3.22;;
72524;SDS011;60547;48.502;8.996;2023-03-12T01:41:36;6.40;;;3.40;;
72524;SDS011;60547;48.502;8.996;2023-03-12T01:44:02;6.70;;;2.95;;
72524;SDS011;60547;48.502;8.996;2023-03-12T01:49:01;5.88;;;3.00;;
72524;SDS011;60547;48.502;8.996;2023-03-12T01:51:44;6.82;;;4.20;;
72524;SDS011;60547;48.502;8.996;2023-03-12T01:54:17;8.77;;;4.70;;
72524;SDS011;60547;48.502;8.996;2023-03-12T01:56:46;10.52;;;4.95;;
72524;SDS011;60547;48.502;8.996;2023-03-12T01:59:19;8.32;;;4.18;;
72524;SDS011;60547;48.502;8.996;2023-03-12T02:01:48;9.73;;;3.92;;
72524;SDS011;60547;48.502;8.996;2023-03-12T02:04:15;7.68;;;4.50;;
72524;SDS011;60547;48.502;8.996;2023-03-12T02:07:03;8.10;;;4.13;;
72524;SDS011;60547;48.502;8.996;2023-03-12T02:09:31;8.00;;;3.80;;
72524;SDS011;60547;48.502;8.996;2023-03-12T02:11:59;7.15;;;3.90;;
72524;SDS011;60547;48.502;8.996;2023-03-12T02:14:25;7.22;;;4.15;;
72524;SDS011;60547;48.502;8.996;2023-03-12T02:16:50;13.00;;;3.60;;
72524;SDS011;60547;48.502;8.996;2023-03-12T02:19:21;7.70;;;4.20;;
72524;SDS011;60547;48.502;8.996;2023-03-12T02:21:54;8.93;;;4.43;;
72524;SDS011;60547;48.502;8.996;2023-03-12T02:24:32;8.00;;;4.18;;
72524;SDS011;60547;48.502;8.996;2023-03-12T02:27:05;8.90;;;4.40;;
72524;SDS011;60547;48.502;8.996;2023-03-12T02:29:32;9.02;;;4.70;;
72524;SDS011;60547;48.502;8.996;2023-03-12T02:31:59;7.13;;;4.03;;
72524;SDS011;60547;48.502;8.996;2023-03-12T02:34:28;6.85;;;4.03;;
72524;SDS011;60547;48.502;8.996;2023-03-12T02:36:54;9.20;;;4.05;;
72524;SDS011;60547;48.502;8.996;2023-03-12T02:39:20;9.50;;;4.13;;
72524;SDS011;60547;48.502;8.996;2023-03-12T02:41:47;8.38;;;4.93;;
72524;SDS011;60547;48.502;8.996;2023-03-12T02:46:52;6.65;;;4.45;;
72524;SDS011;60547;48.502;8.996;2023-03-12T02:49:20;9.48;;;3.95;;
72524;SDS011;60547;48.502;8.996;2023-03-12T02:51:46;7.45;;;4.43;;
72524;SDS011;60547;48.502;8.996;2023-03-12T02:54:13;8.48;;;4.22;;
72524;SDS011;60547;48.502;8.996;2023-03-12T02:56:40;8.80;;;4.72;;
72524;SDS011;60547;48.502;8.996;2023-03-12T02:59:05;8.00;;;4.45;;
72524;SDS011;60547;48.502;8.996;2023-03-12T03:01:32;7.57;;;4.40;;
72524;SDS011;60547;48.502;8.996;2023-03-12T03:03:59;6.38;;;3.47;;
72524;SDS011;60547;48.502;8.996;2023-03-12T03:06:25;7.30;;;3.58;;
72524;SDS011;60547;48.502;8.996;2023-03-12T03:08:51;6.90;;;3.30;;
72524;SDS011;60547;48.502;8.996;2023-03-12T03:11:17;8.50;;;3.42;;
72524;SDS011;60547;48.502;8.996;2023-03-12T03:13:43;6.30;;;3.17;;
72524;SDS011;60547;48.502;8.996;2023-03-12T03:16:08;6.68;;;3.50;;
72524;SDS011;60547;48.502;8.996;2023-03-12T03:18:36;5.85;;;3.05;;
72524;SDS011;60547;48.502;8.996;2023-03-12T03:21:03;7.55;;;3.55;;
72524;SDS011;60547;48.502;8.996;2023-03-12T03:23:31;8.45;;;3.60;;
72524;SDS011;60547;48.502;8.996;2023-03-12T03:25:57;8.25;;;3.35;;
72524;SDS011;60547;48.502;8.996;2023-03-12T03:28:24;8.02;;;3.75;;
72524;SDS011;60547;48.502;8.996;2023-03-12T03:30:52;7.22;;;3.60;;
72524;SDS011;60547;48.502;8.996;2023-03-12T03:33:18;7.82;;;3.78;;
72524;SDS011;60547;48.502;8.996;2023-03-12T03:35:44;8.65;;;4.47;;
72524;SDS011;60547;48.502;8.996;2023-03-12T03:38:10;4.95;;;3.13;;
72524;SDS011;60547;48.502;8.996;2023-03-12T03:40:35;6.93;;;3.33;;
72524;SDS011;60547;48.502;8.996;2023-03-12T03:43:01;7.25;;;3.42;;
72524;SDS011;60547;48.502;8.996;2023-03-12T03:45:26;8.68;;;3.97;;
72524;SDS011;60547;48.502;8.996;2023-03-12T03:47:52;7.30;;;3.90;;
72524;SDS011;60547;48.502;8.996;2023-03-12T03:50:17;7.93;;;3.90;;
72524;SDS011;60547;48.502;8.996;2023-03-12T03:52:43;7.25;;;3.92;;
72524;SDS011;60547;48.502;8.996;2023-03-12T03:55:08;8.95;;;3.95;;
72524;SDS011;60547;48.502;8.996;2023-03-12T03:57:34;8.25;;;3.58;;
72524;SDS011;60547;48.502;8.996;2023-03-12T03:59:59;8.30;;;4.22;;
72524;SDS011;60547;48.502;8.996;2023-03-12T04:02:25;8.40;;;4.50;;
72524;SDS011;60547;48.502;8.996;2023-03-12T04:04:52;6.05;;;3.72;;
72524;SDS011;60547;48.502;8.996;2023-03-12T04:07:21;8.75;;;3.63;;
72524;SDS011;60547;48.502;8.996;2023-03-12T04:09:47;6.70;;;3.55;;
72524;SDS011;60547;48.502;8.996;2023-03-12T04:12:12;7.47;;;4.00;;
72524;SDS011;60547;48.502;8.996;2023-03-12T04:14:39;8.18;;;3.65;;
72524;SDS011;60547;48.502;8.996;2023-03-12T04:17:05;9.02;;;3.80;;
72524;SDS011;60547;48.502;8.996;2023-03-12T04:19:31;7.05;;;3.92;;
72524;SDS011;60547;48.502;8.996;2023-03-12T04:21:57;6.45;;;3.38;;
72524;SDS011;60547;48.502;8.996;2023-03-12T04:24:22;7.35;;;3.55;;
72524;SDS011;60547;48.502;8.996;2023-03-12T04:26:48;7.40;;;3.78;;
72524;SDS011;60547;48.502;8.996;2023-03-12T04:29:16;6.90;;;3.40;;
72524;SDS011;60547;48.502;8.996;2023-03-12T04:31:43;7.72;;;3.80;;
72524;SDS011;60547;48.502;8.996;2023-03-12T04:34:09;10.07;;;3.90;;
72524;SDS011;60547;48.502;8.996;2023-03-12T04:36:35;6.80;;;3.83;;
72524;SDS011;60547;48.502;8.996;2023-03-12T04:39:00;7.60;;;3.70;;
72524;SDS011;60547;48.502;8.996;2023-03-12T04:41:26;6.82;;;3.88;;
72524;SDS011;60547;48.502;8.996;2023-03-12T04:43:52;8.05;;;3.78;;
72524;SDS011;60547;48.502;8.996;2023-03-12T04:46:18;11.05;;;3.88;;
72524;SDS011;60547;48.502;8.996;2023-03-12T04:48:44;7.63;;;3.70;;
72524;SDS011;60547;48.502;8.996;2023-03-12T04:51:09;7.15;;;3.80;;
72524;SDS011;60547;48.502;8.996;2023-03-12T04:53:35;7.63;;;4.03;;
72524;SDS011;60547;48.502;8.996;2023-03-12T04:56:01;8.35;;;4.30;;
72524;SDS011;60547;48.502;8.996;2023-03-12T04:58:27;8.73;;;4.07;;
72524;SDS011;60547;48.502;8.996;2023-03-12T05:00:53;7.15;;;3.63;;
72524;SDS011;60547;48.502;8.996;2023-03-12T05:03:18;7.38;;;4.10;;
72524;SDS011;60547;48.502;8.996;2023-03-12T05:05:44;10.23;;;4.47;;
72524;SDS011;60547;48.502;8.996;2023-03-12T05:08:12;7.38;;;4.18;;
72524;SDS011;60547;48.502;8.996;2023-03-12T05:10:37;6.68;;;3.65;;
72524;SDS011;60547;48.502;8.996;2023-03-12T05:13:03;8.18;;;4.30;;
72524;SDS011;60547;48.502;8.996;2023-03-12T05:15:29;8.75;;;3.95;;
72524;SDS011;60547;48.502;8.996;2023-03-12T05:17:55;7.80;;;3.95;;
72524;SDS011;60547;48.502;8.996;2023-03-12T05:20:20;9.02;;;4.30;;
72524;SDS011;60547;48.502;8.996;2023-03-12T05:22:46;7.68;;;4.40;;
72524;SDS011;60547;48.502;8.996;2023-03-12T05:25:12;7.25;;;4.60;;
72524;SDS011;60547;48.502;8.996;2023-03-12T05:27:38;8.35;;;4.07;;
72524;SDS011;60547;48.502;8.996;2023-03-12T05:30:04;8.60;;;5.28;;
72524;SDS011;60547;48.502;8.996;2023-03-12T05:32:31;8.02;;;4.55;;
72524;SDS011;60547;48.502;8.996;2023-03-12T05:34:57;9.82;;;4.38;;
72524;SDS011;60547;48.502;8.996;2023-03-12T05:37:22;9.02;;;4.63;;
72524;SDS011;60547;48.502;8.996;2023-03-12T05:39:48;8.75;;;4.82;;
72524;SDS011;60547;48.502;8.996;2023-03-12T05:42:14;9.68;;;4.88;;
72524;SDS011;60547;48.502;8.996;2023-03-12T05:44:41;9.80;;;4.70;;
72524;SDS011;60547;48.502;8.996;2023-03-12T05:47:07;7.00;;;3.97;;
72524;SDS011;60547;48.502;8.996;2023-03-12T05:49:32;7.90;;;4.45;;
72524;SDS011;60547;48.502;8.996;2023-03-12T05:51:58;6.75;;;3.47;;
72524;SDS011;60547;48.502;8.996;2023-03-12T05:54:24;8.60;;;4.70;;
72524;SDS011;60547;48.502;8.996;2023-03-12T05:56:50;9.00;;;4.10;;
72524;SDS011;60547;48.502;8.996;2023-03-12T05:59:16;11.35;;;3.95;;
72524;SDS011;60547;48.502;8.996;2023-03-12T06:01:42;7.00;;;3.67;;
72524;SDS011;60547;48.502;8.996;2023-03-12T06:04:08;10.77;;;4.35;;
72524;SDS011;60547;48.502;8.996;2023-03-12T06:06:34;8.93;;;3.60;;
72524;SDS011;60547;48.502;8.996;2023-03-12T06:09:01;9.10;;;5.03;;
72524;SDS011;60547;48.502;8.996;2023-03-12T06:11:28;7.82;;;4.50;;
72524;SDS011;60547;48.502;8.996;2023-03-12T06:13:55;8.65;;;4.55;;
72524;SDS011;60547;48.502;8.996;2023-03-12T06:16:23;8.02;;;4.45;;
72524;SDS011;60547;48.502;8.996;2023-03-12T06:18:56;7.03;;;4.00;;
72524;SDS011;60547;48.502;8.996;2023-03-12T06:21:24;9.68;;;4.93;;
72524;SDS011;60547;48.502;8.996;2023-03-12T06:23:52;7.05;;;3.85;;
72524;SDS011;60547;48.502;8.996;2023-03-12T06:26:19;8.95;;;4.43;;
72524;SDS011;60547;48.502;8.996;2023-03-12T06:28:46;8.93;;;4.03;;
72524;SDS011;60547;48.502;8.996;2023-03-12T06:31:13;8.80;;;4.40;;
72524;SDS011;60547;48.502;8.996;2023-03-12T06:33:39;8.15;;;3.65;;
72524;SDS011;60547;48.502;8.996;2023-03-12T06:36:06;8.10;;;3.83;;
72524;SDS011;60547;48.502;8.996;2023-03-12T06:38:33;10.02;;;4.72;;
72524;SDS011;60547;48.502;8.996;2023-03-12T06:41:06;8.15;;;4.10;;
72524;SDS011;60547;48.502;8.996;2023-03-12T06:43:39;6.13;;;4.18;;
72524;SDS011;60547;48.502;8.996;2023-03-12T06:46:06;7.80;;;4.40;;
72524;SDS011;60547;48.502;8.996;2023-03-12T06:48:33;7.43;;;4.85;;
72524;SDS011;60547;48.502;8.996;2023-03-12T06:51:02;12.15;;;4.22;;
72524;SDS011;60547;48.502;8.996;2023-03-12T06:53:28;6.78;;;4.95;;
72524;SDS011;60547;48.502;8.996;2023-03-12T06:55:54;7.57;;;4.30;;
72524;SDS011;60547;48.502;8.996;2023-03-12T06:58:20;8.68;;;4.50;;
72524;SDS011;60547;48.502;8.996;2023-03-12T07:00:46;8.63;;;4.68;;
72524;SDS011;60547;48.502;8.996;2023-03-12T07:03:12;9.18;;;5.80;;
72524;SDS011;60547;48.502;8.996;2023-03-12T07:05:37;9.90;;;4.75;;
72524;SDS011;60547;48.502;8.996;2023-03-12T07:08:03;8.00;;;4.45;;
72524;SDS011;60547;48.502;8.996;2023-03-12T07:10:29;7.45;;;4.13;;
72524;SDS011;60547;48.502;8.996;2023-03-12T07:12:55;10.40;;;5.20;;
72524;SDS011;60547;48.502;8.996;2023-03-12T07:15:22;7.78;;;4.30;;
72524;SDS011;60547;48.502;8.996;2023-03-12T07:17:48;9.55;;;4.82;;
72524;SDS011;60547;48.502;8.996;2023-03-12T07:20:14;7.90;;;4.65;;
72524;SDS011;60547;48.502;8.996;2023-03-12T07:22:40;9.10;;;5.30;;
72524;SDS011;60547;48.502;8.996;2023-03-12T07:25:06;11.48;;;5.90;;
72524;SDS011;60547;48.502;8.996;2023-03-12T07:27:34;8.68;;;6.78;;
72524;SDS011;60547;48.502;8.996;2023-03-12T07:29:59;10.70;;;5.90;;
72524;SDS011;60547;48.502;8.996;2023-03-12T07:32:25;9.57;;;5.15;;
72524;SDS011;60547;48.502;8.996;2023-03-12T07:34:51;7.43;;;5.13;;
72524;SDS011;60547;48.502;8.996;2023-03-12T07:37:17;9.60;;;4.78;;
72524;SDS011;60547;48.502;8.996;2023-03-12T07:39:42;9.70;;;5.32;;
72524;SDS011;60547;48.502;8.996;2023-03-12T07:42:09;8.88;;;4.88;;
72524;SDS011;60547;48.502;8.996;2023-03-12T07:44:37;10.98;;;5.97;;
72524;SDS011;60547;48.502;8.996;2023-03-12T07:47:03;9.40;;;5.20;;
72524;SDS011;60547;48.502;8.996;2023-03-12T07:49:29;11.10;;;6.15;;
72524;SDS011;60547;48.502;8.996;2023-03-12T07:51:55;10.55;;;5.68;;
72524;SDS011;60547;48.502;8.996;2023-03-12T07:54:20;11.32;;;5.85;;
72524;SDS011;60547;48.502;8.996;2023-03-12T07:56:49;11.48;;;7.03;;
72524;SDS011;60547;48.502;8.996;2023-03-12T07:59:15;10.90;;;6.35;;
72524;SDS011;60547;48.502;8.996;2023-03-12T08:01:43;9.15;;;6.28;;
72524;SDS011;60547;48.502;8.996;2023-03-12T08:04:09;9.55;;;5.80;;
72524;SDS011;60547;48.502;8.996;2023-03-12T08:06:35;9.35;;;5.85;;
72524;SDS011;60547;48.502;8.996;2023-03-12T08:09:02;8.93;;;5.28;;
72524;SDS011;60547;48.502;8.996;2023-03-12T08:11:31;8.55;;;4.88;;
72524;SDS011;60547;48.502;8.996;2023-03-12T08:13:58;10.80;;;5.93;;
72524;SDS011;60547;48.502;8.996;2023-03-12T08:16:24;10.15;;;4.93;;
72524;SDS011;60547;48.502;8.996;2023-03-12T08:18:50;10.10;;;6.13;;
72524;SDS011;60547;48.502;8.996;2023-03-12T08:21:15;9.27;;;5.72;;
72524;SDS011;60547;48.502;8.996;2023-03-12T08:23:44;8.82;;;4.80;;
72524;SDS011;60547;48.502;8.996;2023-03-12T08:26:10;10.20;;;5.63;;
72524;SDS011;60547;48.502;8.996;2023-03-12T08:28:36;8.70;;;5.50;;
72524;SDS011;60547;48.502;8.996;2023-03-12T08:31:02;10.65;;;5.57;;
72524;SDS011;60547;48.502;8.996;2023-03-12T08:33:28;9.38;;;5.95;;
72524;SDS011;60547;48.502;8.996;2023-03-12T08:35:54;15.48;;;7.90;;
72524;SDS011;60547;48.502;8.996;2023-03-12T08:38:23;10.65;;;7.28;;
72524;SDS011;60547;48.502;8.996;2023-03-12T08:41:01;12.52;;;7.80;;
72524;SDS011;60547;48.502;8.996;2023-03-12T08:43:31;12.93;;;7.65;;
72524;SDS011;60547;48.502;8.996;2023-03-12T08:46:01;11.85;;;7.43;;
72524;SDS011;60547;48.502;8.996;2023-03-12T08:48:29;14.82;;;7.20;;
72524;SDS011;60547;48.502;8.996;2023-03-12T08:51:05;11.57;;;6.30;;
72524;SDS011;60547;48.502;8.996;2023-03-12T08:53:33;13.32;;;8.48;;
72524;SDS011;60547;48.502;8.996;2023-03-12T08:56:04;11.82;;;7.57;;
72524;SDS011;60547;48.502;8.996;2023-03-12T08:58:33;12.15;;;7.57;;
72524;SDS011;60547;48.502;8.996;2023-03-12T09:01:00;10.82;;;5.43;;
72524;SDS011;60547;48.502;8.996;2023-03-12T09:03:33;12.63;;;6.63;;
72524;SDS011;60547;48.502;8.996;2023-03-12T09:06:08;12.50;;;7.22;;
72524;SDS011;60547;48.502;8.996;2023-03-12T09:08:38;14.63;;;10.20;;
72524;SDS011;60547;48.502;8.996;2023-03-12T09:11:05;10.55;;;6.60;;
72524;SDS011;60547;48.502;8.996;2023-03-12T09:13:33;11.20;;;6.95;;
72524;SDS011;60547;48.502;8.996;2023-03-12T09:15:59;8.43;;;6.80;;
72524;SDS011;60547;48.502;8.996;2023-03-12T09:18:26;9.27;;;6.35;;
72524;SDS011;60547;48.502;8.996;2023-03-12T09:20:53;9.05;;;6.43;;
72524;SDS011;60547;48.502;8.996;2023-03-12T09:23:19;9.10;;;5.93;;
72524;SDS011;60547;48.502;8.996;2023-03-12T09:25:45;11.10;;;6.22;;
72524;SDS011;60547;48.502;8.996;2023-03-12T09:28:12;10.38;;;5.80;;
72524;SDS011;60547;48.502;8.996;2023-03-12T09:30:38;8.43;;;5.53;;
72524;SDS011;60547;48.502;8.996;2023-03-12T09:33:04;10.95;;;6.10;;
72524;SDS011;60547;48.502;8.996;2023-03-12T09:35:29;10.38;;;6.07;;
72524;SDS011;60547;48.502;8.996;2023-03-12T09:37:56;9.20;;;5.13;;
72524;SDS011;60547;48.502;8.996;2023-03-12T09:40:23;9.57;;;5.55;;
72524;SDS011;60547;48.502;8.996;2023-03-12T09:42:51;11.55;;;6.00;;
72524;SDS011;60547;48.502;8.996;2023-03-12T09:45:21;10.15;;;5.45;;
72524;SDS011;60547;48.502;8.996;2023-03-12T09:47:50;9.10;;;5.68;;
72524;SDS011;60547;48.502;8.996;2023-03-12T09:53:35;12.43;;;6.43;;
72524;SDS011;60547;48.502;8.996;2023-03-12T09:56:05;9.57;;;6.22;;
72524;SDS011;60547;48.502;8.996;2023-03-12T09:58:37;9.32;;;6.10;;
72524;SDS011;60547;48.502;8.996;2023-03-12T10:03:45;7.70;;;4.90;;
72524;SDS011;60547;48.502;8.996;2023-03-12T10:06:20;8.98;;;5.75;;
72524;SDS011;60547;48.502;8.996;2023-03-12T10:17:01;6.03;;;4.25;;
72524;SDS011;60547;48.502;8.996;2023-03-12T10:25:35;7.00;;;2.40;;
72524;SDS011;60547;48.502;8.996;2023-03-12T10:28:14;3.67;;;1.80;;
72524;SDS011;60547;48.502;8.996;2023-03-12T10:30:45;5.95;;;1.95;;
72524;SDS011;60547;48.502;8.996;2023-03-12T10:33:18;3.05;;;1.40;;
72524;SDS011;60547;48.502;8.996;2023-03-12T10:35:45;3.58;;;1.58;;
72524;SDS011;60547;48.502;8.996;2023-03-12T10:38:13;5.38;;;1.70;;
72524;SDS011;60547;48.502;8.996;2023-03-12T10:40:44;6.90;;;1.23;;
72524;SDS011;60547;48.502;8.996;2023-03-12T10:43:11;5.13;;;1.63;;
72524;SDS011;60547;48.502;8.996;2023-03-12T10:48:24;5.10;;;1.67;;
72524;SDS011;60547;48.502;8.996;2023-03-12T10:53:30;4.28;;;1.58;;
72524;SDS011;60547;48.502;8.996;2023-03-12T10:56:08;3.72;;;1.50;;
72524;SDS011;60547;48.502;8.996;2023-03-12T10:58:43;5.22;;;1.15;;
72524;SDS011;60547;48.502;8.996;2023-03-12T11:03:39;4.30;;;1.33;;
72524;SDS011;60547;48.502;8.996;2023-03-12T11:06:07;5.63;;;1.75;;
72524;SDS011;60547;48.502;8.996;2023-03-12T11:08:43;4.97;;;1.50;;
72524;SDS011;60547;48.502;8.996;2023-03-12T11:11:30;4.70;;;1.40;;
72524;SDS011;60547;48.502;8.996;2023-03-12T11:14:17;6.38;;;1.88;;
72524;SDS011;60547;48.502;8.996;2023-03-12T11:16:43;5.32;;;1.83;;
72524;SDS011;60547;48.502;8.996;2023-03-12T11:19:13;7.00;;;2.10;;
72524;SDS011;60547;48.502;8.996;2023-03-12T11:21:55;6.80;;;2.35;;
72524;SDS011;60547;48.502;8.996;2023-03-12T11:24:23;5.68;;;2.38;;
72524;SDS011;60547;48.502;8.996;2023-03-12T11:26:50;8.38;;;2.90;;
72524;SDS011;60547;48.502;8.996;2023-03-12T11:29:51;6.38;;;2.20;;
72524;SDS011;60547;48.502;8.996;2023-03-12T11:32:19;5.82;;;1.70;;
72524;SDS011;60547;48.502;8.996;2023-03-12T11:35:08;7.55;;;2.55;;
72524;SDS011;60547;48.502;8.996;2023-03-12T11:43:56;7.88;;;2.55;;
72524;SDS011;60547;48.502;8.996;2023-03-12T11:46:45;8.05;;;2.05;;
72524;SDS011;60547;48.502;8.996;2023-03-12T11:49:16;7.57;;;2.10;;
72524;SDS011;60547;48.502;8.996;2023-03-12T11:54:16;5.30;;;2.40;;
72524;SDS011;60547;48.502;8.996;2023-03-12T11:57:01;7.38;;;2.45;;
72524;SDS011;60547;48.502;8.996;2023-03-12T12:10:27;5.22;;;1.33;;
72524;SDS011;60547;48.502;8.996;2023-03-12T12:21:23;4.20;;;1.70;;
72524;SDS011;60547;48.502;8.996;2023-03-12T12:26:45;3.97;;;1.25;;
72524;SDS011;60547;48.502;8.996;2023-03-12T12:35:46;4.80;;;1.15;;
72524;SDS011;60547;48.502;8.996;2023-03-12T12:40:45;5.25;;;1.92;;
72524;SDS011;60547;48.502;8.996;2023-03-12T12:43:26;4.55;;;1.40;;
72524;SDS011;60547;48.502;8.996;2023-03-12T12:45:55;5.18;;;1.45;;
72524;SDS011;60547;48.502;8.996;2023-03-12T12:51:02;6.40;;;1.30;;
72524;SDS011;60547;48.502;8.996;2023-03-12T12:53:41;2.85;;;1.00;;
72524;SDS011;60547;48.502;8.996;2023-03-12T12:58:59;8.05;;;1.85;;
72524;SDS011;60547;48.502;8.996;2023-03-12T13:01:50;4.97;;;1.55;;
72524;SDS011;60547;48.502;8.996;2023-03-12T13:04:23;4.97;;;1.52;;
72524;SDS011;60547;48.502;8.996;2023-03-12T13:10:07;6.05;;;1.35;;
72524;SDS011;60547;48.502;8.996;2023-03-12T13:12:32;6.93;;;1.48;;
72524;SDS011;60547;48.502;8.996;2023-03-12T13:14:59;4.50;;;1.60;;
72524;SDS011;60547;48.502;8.996;2023-03-12T13:17:33;6.00;;;1.13;;
72524;SDS011;60547;48.502;8.996;2023-03-12T13:30:52;3.80;;;1.30;;
72524;SDS011;60547;48.502;8.996;2023-03-12T13:33:19;5.93;;;2.05;;
72524;SDS011;60547;48.502;8.996;2023-03-12T13:52:31;3.30;;;1.83;;
72524;SDS011;60547;48.502;8.996;2023-03-12T13:55:06;3.92;;;1.20;;
72524;SDS011;60547;48.502;8.996;2023-03-12T13:57:49;4.38;;;1.52;;
72524;SDS011;60547;48.502;8.996;2023-03-12T14:02:49;4.57;;;1.33;;
72524;SDS011;60547;48.502;8.996;2023-03-12T14:05:19;6.35;;;1.40;;
72524;SDS011;60547;48.502;8.996;2023-03-12T14:10:56;6.30;;;1.38;;
72524;SDS011;60547;48.502;8.996;2023-03-12T14:16:32;4.10;;;1.40;;
72524;SDS011;60547;48.502;8.996;2023-03-12T14:19:04;6.00;;;2.50;;
72524;SDS011;60547;48.502;8.996;2023-03-12T14:21:34;5.95;;;1.50;;
72524;SDS011;60547;48.502;8.996;2023-03-12T14:24:04;4.50;;;1.40;;
72524;SDS011;60547;48.502;8.996;2023-03-12T14:26:32;4.80;;;1.63;;
72524;SDS011;60547;48.502;8.996;2023-03-12T14:31:30;3.42;;;1.55;;
72524;SDS011;60547;48.502;8.996;2023-03-12T14:34:07;3.88;;;1.30;;
72524;SDS011;60547;48.502;8.996;2023-03-12T14:36:44;6.57;;;1.40;;
72524;SDS011;60547;48.502;8.996;2023-03-12T14:41:53;3.03;;;1.00;;
72524;SDS011;60547;48.502;8.996;2023-03-12T14:44:24;4.82;;;1.38;;
72524;SDS011;60547;48.502;8.996;2023-03-12T14:46:59;5.22;;;1.20;;
72524;SDS011;60547;48.502;8.996;2023-03-12T14:49:28;4.05;;;1.30;;
72524;SDS011;60547;48.502;8.996;2023-03-12T14:51:55;5.43;;;1.58;;
72524;SDS011;60547;48.502;8.996;2023-03-12T14:54:25;3.92;;;1.50;;
72524;SDS011;60547;48.502;8.996;2023-03-12T14:56:52;3.78;;;1.30;;
72524;SDS011;60547;48.502;8.996;2023-03-12T15:01:51;3.05;;;1.50;;
72524;SDS011;60547;48.502;8.996;2023-03-12T15:04:23;5.22;;;1.25;;
72524;SDS011;60547;48.502;8.996;2023-03-12T15:06:56;4.72;;;1.20;;
72524;SDS011;60547;48.502;8.996;2023-03-12T15:09:24;3.55;;;1.45;;
72524;SDS011;60547;48.502;8.996;2023-03-12T15:11:58;5.28;;;1.42;;
72524;SDS011;60547;48.502;8.996;2023-03-12T15:14:27;3.63;;;1.20;;
72524;SDS011;60547;48.502;8.996;2023-03-12T15:16:58;4.72;;;1.50;;
72524;SDS011;60547;48.502;8.996;2023-03-12T15:19:34;4.82;;;1.45;;
72524;SDS011;60547;48.502;8.996;2023-03-12T15:22:03;5.80;;;1.42;;
72524;SDS011;60547;48.502;8.996;2023-03-12T15:24:33;5.50;;;1.23;;
72524;SDS011;60547;48.502;8.996;2023-03-12T15:29:56;2.58;;;1.05;;
72524;SDS011;60547;48.502;8.996;2023-03-12T15:32:23;4.78;;;0.95;;
72524;SDS011;60547;48.502;8.996;2023-03-12T15:34:51;4.60;;;0.93;;
72524;SDS011;60547;48.502;8.996;2023-03-12T15:40:16;3.65;;;1.50;;
72524;SDS011;60547;48.502;8.996;2023-03-12T15:42:45;7.90;;;2.83;;
72524;SDS011;60547;48.502;8.996;2023-03-12T15:45:20;12.50;;;3.50;;
72524;SDS011;60547;48.502;8.996;2023-03-12T15:47:49;6.25;;;1.90;;
72524;SDS011;60547;48.502;8.996;2023-03-12T15:53:02;3.88;;;2.03;;
72524;SDS011;60547;48.502;8.996;2023-03-12T15:55:31;5.28;;;1.70;;
72524;SDS011;60547;48.502;8.996;2023-03-12T15:57:58;3.63;;;1.17;;
72524;SDS011;60547;48.502;8.996;2023-03-12T16:00:25;3.33;;;1.15;;
72524;SDS011;60547;48.502;8.996;2023-03-12T16:03:01;3.65;;;1.30;;
72524;SDS011;60547;48.502;8.996;2023-03-12T16:05:31;5.57;;;1.48;;
72524;SDS011;60547;48.502;8.996;2023-03-12T16:08:00;4.82;;;1.35;;
72524;SDS011;60547;48.502;8.996;2023-03-12T16:10:38;4.50;;;1.48;;
72524;SDS011;60547;48.502;8.996;2023-03-12T16:13:03;4.57;;;1.20;;
72524;SDS011;60547;48.502;8.996;2023-03-12T16:15:34;4.35;;;1.20;;
72524;SDS011;60547;48.502;8.996;2023-03-12T16:18:01;4.38;;;1.63;;
72524;SDS011;60547;48.502;8.996;2023-03-12T16:20:28;6.43;;;1.92;;
72524;SDS011;60547;48.502;8.996;2023-03-12T16:22:54;6.30;;;2.40;;
72524;SDS011;60547;48.502;8.996;2023-03-12T16:25:19;5.72;;;2.28;;
72524;SDS011;60547;48.502;8.996;2023-03-12T16:27:50;5.93;;;1.77;;
72524;SDS011;60547;48.502;8.996;2023-03-12T16:30:24;6.45;;;2.00;;
72524;SDS011;60547;48.502;8.996;2023-03-12T16:32:55;8.57;;;3.33;;
72524;SDS011;60547;48.502;8.996;2023-03-12T16:35:22;12.75;;;4.55;;
72524;SDS011;60547;48.502;8.996;2023-03-12T16:37:47;6.80;;;3.17;;
72524;SDS011;60547;48.502;8.996;2023-03-12T16:40:14;7.13;;;2.70;;
72524;SDS011;60547;48.502;8.996;2023-03-12T16:42:44;7.05;;;2.90;;
72524;SDS011;60547;48.502;8.996;2023-03-12T16:45:15;5.97;;;3.83;;
72524;SDS011;60547;48.502;8.996;2023-03-12T16:47:41;6.95;;;2.33;;
72524;SDS011;60547;48.502;8.996;2023-03-12T16:50:18;6.40;;;2.85;;
72524;SDS011;60547;48.502;8.996;2023-03-12T16:52:45;11.05;;;3.25;;
72524;SDS011;60547;48.502;8.996;2023-03-12T16:55:12;6.38;;;3.53;;
72524;SDS011;60547;48.502;8.996;2023-03-12T16:57:39;7.00;;;2.63;;
72524;SDS011;60547;48.502;8.996;2023-03-12T17:00:18;6.43;;;2.78;;
72524;SDS011;60547;48.502;8.996;2023-03-12T17:02:46;6.20;;;2.33;;
72524;SDS011;60547;48.502;8.996;2023-03-12T17:05:13;7.85;;;2.28;;
72524;SDS011;60547;48.502;8.996;2023-03-12T17:07:38;5.38;;;2.30;;